Latest Weather Observations for Busselton Jetty

IDW60801

Issued at 2:23 pm WST Saturday 10 December 2022 (issued every 10 minutes, with the page automatically refreshed every 10 minutes)

About weather observations | Map of weather stations | Latest weather observations for WA | Other Formats
Station Details ID: 009937 Name: BUSSELTON JETTY Lat: -33.63 Lon: 115.34 Height: 3.0 m
Data from the previous 72 hours. | See also: Recent months at Busselton Jetty
Date/Time
WST
Temp
°C
App
Temp
°C
Dew
Point
°C
Rel
Hum
%
Delta-T
°C
Wind Press
QNH
hPa
Press
MSL
hPa
Rain since
9am
mm
Dir  Spd
km/h
Gust
km/h
Spd
kts
Gust
kts
10/02:00pm - - - - - SSE 24 33 13 18 - - -
10/01:30pm - - - - - SSE 19 30 10 16 - - -
10/01:00pm - - - - - S 17 32 9 17 - - -
10/12:30pm - - - - - SSE 20 32 11 17 - - -
10/12:00pm - - - - - SSE 22 33 12 18 - - -
10/11:30am - - - - - S 20 28 11 15 - - -
10/11:00am - - - - - S 13 22 7 12 - - -
10/10:30am - - - - - SSE 22 32 12 17 - - -
10/10:00am - - - - - SE 20 30 11 16 - - -
10/09:30am - - - - - SE 19 28 10 15 - - -
10/09:00am - - - - - ESE 24 30 13 16 - - -
10/08:30am - - - - - SE 26 32 14 17 - - -
10/08:00am - - - - - E 11 17 6 9 - - -
10/07:30am - - - - - SE 2 7 1 4 - - -
10/07:00am - - - - - SE 9 11 5 6 - - -
10/06:30am - - - - - ESE 11 13 6 7 - - -
10/06:00am - - - - - SE 17 19 9 10 - - -
10/05:30am - - - - - SSE 13 15 7 8 - - -
10/05:00am - - - - - SSE 15 17 8 9 - - -
10/04:30am - - - - - S 13 15 7 8 - - -
10/04:00am - - - - - S 9 11 5 6 - - -
10/03:30am - - - - - SSW 13 13 7 7 - - -
10/03:00am - - - - - SE 11 13 6 7 - - -
10/02:30am - - - - - SSE 15 17 8 9 - - -
10/02:00am - - - - - SSE 13 17 7 9 - - -
10/01:30am - - - - - SSE 13 17 7 9 - - -
10/01:00am - - - - - SSE 15 17 8 9 - - -
10/12:30am - - - - - S 15 17 8 9 - - -
10/12:00am - - - - - S 15 19 8 10 - - -
 
Date/Time
WST
Temp
°C
App
Temp
°C
Dew
Point
°C
Rel
Hum
%
Delta-T
°C
Wind Press
QNH
hPa
Press
MSL
hPa
Rain since
9am
mm
Dir  Spd
km/h
Gust
km/h
Spd
kts
Gust
kts
09/11:30pm - - - - - S 15 17 8 9 - - -
09/11:00pm - - - - - S 15 17 8 9 - - -
09/10:30pm - - - - - SSW 15 19 8 10 - - -
09/10:00pm - - - - - SSW 17 20 9 11 - - -
09/09:30pm - - - - - S 15 19 8 10 - - -
09/09:00pm - - - - - SSE 17 20 9 11 - - -
09/08:30pm - - - - - SSE 15 20 8 11 - - -
09/08:00pm - - - - - SSE 15 20 8 11 - - -
09/07:30pm - - - - - SSE 15 20 8 11 - - -
09/07:00pm - - - - - S 20 28 11 15 - - -
09/06:30pm - - - - - SSE 19 26 10 14 - - -
09/06:00pm - - - - - S 22 28 12 15 - - -
09/05:30pm - - - - - S 22 30 12 16 - - -
09/05:00pm - - - - - S 28 33 15 18 - - -
09/04:30pm - - - - - SSW 32 41 17 22 - - -
09/04:00pm - - - - - WNW 22 28 12 15 - - -
09/03:30pm - - - - - WNW 32 35 17 19 - - -
09/03:00pm - - - - - WNW 33 39 18 21 - - -
09/02:30pm - - - - - WNW 37 41 20 22 - - -
09/02:00pm - - - - - WNW 37 41 20 22 - - -
09/01:30pm - - - - - NW 35 41 19 22 - - -
09/01:00pm - - - - - NW 33 37 18 20 - - -
09/12:30pm - - - - - NW 32 37 17 20 - - -
09/12:00pm - - - - - NW 28 30 15 16 - - -
09/11:30am - - - - - NNW 20 26 11 14 - - -
09/11:00am - - - - - NNW 20 24 11 13 - - -
09/10:30am - - - - - NNW 20 24 11 13 - - -
09/10:00am - - - - - NNW 17 20 9 11 - - -
09/09:30am - - - - - N 13 17 7 9 - - -
09/09:00am - - - - - N 9 11 5 6 - - -
09/08:30am - - - - - N 7 7 4 4 - - -
09/08:00am - - - - - NE 4 7 2 4 - - -
09/07:30am - - - - - E 7 11 4 6 - - -
09/07:00am - - - - - E 6 7 3 4 - - -
09/06:30am - - - - - SSE 7 11 4 6 - - -
09/06:00am - - - - - SSE 9 11 5 6 - - -
09/05:30am - - - - - SSE 9 11 5 6 - - -
09/05:00am - - - - - S 11 13 6 7 - - -
09/04:30am - - - - - SSW 13 15 7 8 - - -
09/04:00am - - - - - SSW 15 19 8 10 - - -
09/03:30am - - - - - SSW 15 19 8 10 - - -
09/03:00am - - - - - SW 9 13 5 7 - - -
09/02:30am - - - - - SSW 9 13 5 7 - - -
09/02:00am - - - - - SSW 9 11 5 6 - - -
09/01:30am - - - - - SW 9 11 5 6 - - -
09/01:00am - - - - - SSW 11 13 6 7 - - -
09/12:30am - - - - - SE 11 15 6 8 - - -
09/12:00am - - - - - SSE 15 19 8 10 - - -
 
Date/Time
WST
Temp
°C
App
Temp
°C
Dew
Point
°C
Rel
Hum
%
Delta-T
°C
Wind Press
QNH
hPa
Press
MSL
hPa
Rain since
9am
mm
Dir  Spd
km/h
Gust
km/h
Spd
kts
Gust
kts
08/11:30pm - - - - - SSE 15 19 8 10 - - -
08/11:00pm - - - - - S 17 20 9 11 - - -
08/10:30pm - - - - - SSW 19 20 10 11 - - -
08/10:00pm - - - - - SSW 17 20 9 11 - - -
08/09:30pm - - - - - SW 19 22 10 12 - - -
08/09:00pm - - - - - SSW 20 24 11 13 - - -
08/08:30pm - - - - - SW 26 30 14 16 - - -
08/08:00pm - - - - - SW 30 35 16 19 - - -
08/07:30pm - - - - - SSW 24 33 13 18 - - -
08/07:00pm - - - - - S 28 33 15 18 - - -
08/06:30pm - - - - - S 33 41 18 22 - - -
08/06:00pm - - - - - SSW 32 39 17 21 - - -
08/05:41pm - - - - - SSW 35 43 19 23 - - -
08/05:30pm - - - - - SW 37 48 20 26 - - -
08/05:00pm - - - - - WSW 35 43 19 23 - - -
08/04:30pm - - - - - SW 33 41 18 22 - - -
08/04:00pm - - - - - SW 35 44 19 24 - - -
08/03:30pm - - - - - WSW 33 41 18 22 - - -
08/03:00pm - - - - - WSW 32 37 17 20 - - -
08/02:30pm - - - - - WSW 32 37 17 20 - - -
08/02:00pm - - - - - WSW 30 37 16 20 - - -
08/01:30pm - - - - - WNW 28 33 15 18 - - -
08/01:00pm - - - - - WNW 30 33 16 18 - - -
08/12:30pm - - - - - NW 24 28 13 15 - - -
08/12:00pm - - - - - NNW 26 28 14 15 - - -
08/11:30am - - - - - NNW 24 28 13 15 - - -
08/11:00am - - - - - NNW 26 28 14 15 - - -
08/10:30am - - - - - NNW 22 26 12 14 - - -
08/10:00am - - - - - NNW 19 20 10 11 - - -
08/09:30am - - - - - NW 15 17 8 9 - - -
08/09:00am - - - - - NW 7 11 4 6 - - -
08/08:30am - - - - - WSW 6 9 3 5 - - -
08/08:00am - - - - - SSW 11 15 6 8 - - -
08/07:30am - - - - - SSW 15 17 8 9 - - -
08/07:00am - - - - - SSW 15 19 8 10 - - -
08/06:30am - - - - - SSW 20 26 11 14 - - -
08/06:00am - - - - - SSW 19 22 10 12 - - -
08/05:30am - - - - - SSW 15 17 8 9 - - -
08/05:00am - - - - - SSW 15 17 8 9 - - -
08/04:30am - - - - - S 13 15 7 8 - - -
08/04:00am - - - - - SSE 15 19 8 10 - - -
08/03:30am - - - - - SE 15 19 8 10 - - -
08/03:00am - - - - - ESE 17 22 9 12 - - -
08/02:30am - - - - - ESE 20 28 11 15 - - -
08/02:00am - - - - - ESE 26 30 14 16 - - -
08/01:30am - - - - - ESE 28 33 15 18 - - -
08/01:00am - - - - - ESE 28 33 15 18 - - -
08/12:30am - - - - - ESE 32 37 17 20 - - -
08/12:00am - - - - - ESE 33 41 18 22 - - -
 
Date/Time
WST
Temp
°C
App
Temp
°C
Dew
Point
°C
Rel
Hum
%
Delta-T
°C
Wind Press
QNH
hPa
Press
MSL
hPa
Rain since
9am
mm
Dir  Spd
km/h
Gust
km/h
Spd
kts
Gust
kts
07/11:30pm - - - - - ESE 32 39 17 21 - - -
07/11:00pm - - - - - ESE 20 33 11 18 - - -
07/10:30pm - - - - - SSE 17 20 9 11 - - -
07/10:00pm - - - - - SSE 22 28 12 15 - - -
07/09:30pm - - - - - S 24 30 13 16 - - -
07/09:00pm - - - - - S 28 33 15 18 - - -
07/08:30pm - - - - - S 32 37 17 20 - - -
07/08:00pm - - - - - S 32 39 17 21 - - -
07/07:30pm - - - - - SSW 32 37 17 20 - - -
07/07:00pm - - - - - SSW 30 35 16 19 - - -
07/06:30pm - - - - - SSW 28 33 15 18 - - -
07/06:00pm - - - - - SSW 30 37 16 20 - - -
07/05:30pm - - - - - WSW 26 37 14 20 - - -
07/05:00pm - - - - - WNW 20 24 11 13 - - -
07/04:30pm - - - - - W 24 28 13 15 - - -
07/04:00pm - - - - - W 26 30 14 16 - - -
07/03:30pm - - - - - WNW 24 26 13 14 - - -
07/03:00pm - - - - - WNW 19 22 10 12 - - -
07/02:30pm - - - - - WNW 22 28 12 15 - - -

Other formats

Comma delimited format used in spreadsheet applications
http://www.bom.gov.au/fwo/IDW60801/IDW60801.95602.axf

JavaScript Object Notation format (JSON) in row-major order
http://www.bom.gov.au/fwo/IDW60801/IDW60801.95602.json

Data quality

Most of these data are generated automatically and are frequently updated. Quality checks on data are not normally performed. It is possible for incorrect values to appear. Refer to information at About Latest Weather Observations and please check the disclaimer before using these data.